Irvington, Virginia
Current Conditions -  °F | °C
As of 7:55 AM on Thursday 23 Oct 2014 (Local Time) from KW75 Reporting Station
Overcast Overcast  
Wind Chill: 53°   Ceiling: 2800
Heat Index: 53°   Visibility: 10mi
Dew Point: 44°   Wind: 13mph
Humidity: 71%   Direction: 300°WNW
Pressure: 29.89"   Gusts: 23mph
Location:  37.66°N, 76.42°W
Report Text: KW75 231155Z AUTO 30011G20KT 270V340 10SM BKN028 OVC038 12/07 A2989 RMK AO1 70010 T01150065 10123 20114
Loading
Personal Weather Stations






























Interactive Weather Map
Tropical Storm Tracking
New forecast layout! Learn more

10-Day Weather Forecast

Advertisements
Track Severe Weather on mobile